x

Buoy F01 - West Penobscot Bay (44033) Wave Buoy

5:04pm - Thu 5th Mar 2015 All times are EST. -5 hours from GMT.

  • Sig Wave height 2.6ft
  • Peak Period 11s
  • Wind
    22mph, 27mph gusts
  • Sea Temp 32°f
  • Air Temp 20°f
  • Sea Pressure 1018.6mb
  • Buoy F01 - West Penobscot Bay
  • Buoy F01 - West Penobscot Bay

More Historic Weather Station data

Upgrade to MSW Pro to gain access to the past 30 days of data for over 8000 Wavebouys and Weather Stations around the globe.

Join Pro

Comparision Forecast

View Surf forecast
   
Thu 03/05 5:04pm 2.5ft 11s 22 27 mph 1018.6mb 32f 20f
4:04pm 2.5ft 11s 20 25 mph 1018mb 32f 21f
3:04pm 2.5ft 11s 18 25 mph 1017.5mb 32f 23f
2:04pm 2.5ft 11s 18 25 mph 1016.4mb 32f 24f
1:04pm 3ft 11s 18 25 mph 1016.2mb 32f 24f
12:04pm 1.6ft 3s 18 22 mph 1016.2mb 32f 25f
11:04am 2ft 4s 18 20 mph 1016.2mb 32f 24f
10:04am 2.5ft 4s 20 22 mph 1015.4mb 32f 25f
9:04am 2ft 3s 22 27 mph 1014.6mb 32f 27f
8:04am 3ft 11s 20 25 mph 1013.3mb 32f 30f
7:04am 2.5ft 11s 16 20 mph 1012.1mb 32f 31f
6:04am 3ft 11s 11 13 mph 1010.7mb 32f 33f
5:04am 2.5ft 6s 16 20 mph 1010.2mb 32f 34f
4:04am 3ft 8s 18 22 mph 1008.3mb 32f 35f
3:04am 3.5ft 11s 13 18 mph 1007.7mb 32f 36f
2:04am 3.5ft 6s 11 16 mph 1007.5mb 32f 36f
1:04am 3ft 8s 7 9 mph 1005.8mb 32f 36f
12:04am 3.5ft 11s 9 11 mph 1006.1mb 32f 36f
Wed 03/04 11:04pm 3.5ft 11s 9 11 mph 1005.9mb 32f 36f
10:04pm 3.5ft 11s 11
mph
1004.5mb 32f 35f
9:04pm 3.5ft 8s 11
mph
1005.6mb 32f 35f
8:04pm 3.5ft 8s 9 11 mph 1004.5mb 32f 35f
7:04pm 2.5ft 6s 9 11 mph 1005.2mb 32f 35f
6:04pm 2.5ft 6s 13 16 mph 1004.3mb 32f 35f
5:04pm 2.5ft 6s 13 16 mph 1004.6mb 32f 36f
4:04pm 3.5ft 8s 13 16 mph 1003.9mb 32f 35f
3:04pm 3.5ft 8s 9 11 mph 1003.4mb 32f 36f
2:04pm 3ft 8s 9 11 mph 1003.3mb 32f 35f
1:04pm 3.5ft 8s 7
mph
1003.7mb 32f 35f
12:04pm 3ft 8s 7 9 mph 1003.7mb 32f 34f
11:04am 3.5ft 8s 9 11 mph 1003.4mb 32f 33f
10:04am 3.5ft 8s 7
mph
1002.9mb 32f 33f
9:04am 4.5ft 8s 9 11 mph 1003.4mb 32f 33f
8:04am 3.5ft 8s 11 16 mph 1003.1mb 32f 33f
7:04am 4ft 8s 11
mph
1002.1mb 32f 33f
6:04am 4ft 8s 9 13 mph 1000.6mb 32f 33f
5:04am 4.5ft 8s 9 11 mph 1001mb 32f 34f
4:04am 4.5ft 8s 16 18 mph 1001.5mb 31f 34f
3:04am 6ft 8s 18 22 mph 1002.6mb 32f 32f
2:04am 5ft 6s 22 27 mph 1004.5mb 31f 32f
1:04am 7ft 6s 22 27 mph 1006.4mb 31f 31f
12:04am 5.5ft 6s 25 29 mph 1007.7mb 31f 30f
Tue 03/03 11:04pm 5ft 6s 25 31 mph 1010.7mb 31f 29f
10:04pm 5ft 5s 25 31 mph 1013.6mb 31f 28f
9:04pm 4ft 5s 25 29 mph 1015.5mb 31f 30f
8:04pm 3.5ft 4s 22 27 mph 1016.8mb 32f 30f
7:04pm 2.5ft 3s 22 27 mph 1018.7mb 32f 30f
6:04pm 1.6ft 3s 18 20 mph 1020.2mb 31f 28f
5:04pm 1.6ft 3s 13 18 mph 1021.4mb 31f 27f
4:04pm 1.3ft 3s 16 20 mph 1022.6mb 31f 26f
3:04pm 1ft 11s 13 16 mph 1023.5mb 32f 26f
2:04pm 0.7ft  -   -  2 mph 1024mb 32f 27f
1:04pm 1ft 11s 11 16 mph 1025.1mb 31f 24f
12:04pm 0.7ft  -  11 16 mph 1025.8mb 31f 22f
11:04am 1ft 11s 11 13 mph 1026.6mb 32f 20f
10:04am 1ft 2s 9 13 mph 1026.4mb 31f 19f
9:04am 1ft 11s 11 16 mph 1026.7mb 31f 17f
8:04am 0.7ft  -  11 13 mph 1026.9mb 32f 16f
7:04am 1ft 11s 9 11 mph 1026.6mb 31f 16f
6:04am 1ft 11s 11 13 mph 1025.8mb 31f 16f
5:04am 1.3ft 3s 13 18 mph 1024.8mb 31f 17f
4:04am 1ft 3s 11 13 mph 1023.5mb 31f 17f
3:04am 1.6ft 3s 13 16 mph 1022.4mb 31f 18f
2:04am 1.6ft 3s 18 22 mph 1021.5mb 31f 19f
1:04am 3.5ft 4s 22 25 mph 1020.3mb 31f 20f
12:04am 3.5ft 4s 27 31 mph 1018.9mb 31f 20f
Mon 03/02 11:04pm 3ft 4s 22 29 mph 1017.8mb 31f 23f
10:04pm 2ft 3s 22 29 mph 1016.5mb 31f 25f
9:04pm 2ft 3s 22 27 mph 1015.5mb 31f 26f
8:04pm 2ft 3s 20 29 mph 1014.4mb 31f 27f
7:04pm 2.5ft 4s 22 31 mph 1013.8mb 31f 28f
6:04pm 2ft 4s 22 29 mph 1012.3mb 31f 29f
5:04pm 2.5ft 3s 25 36 mph 1010.9mb 31f 30f
4:04pm 2.5ft 3s 20 27 mph 1009.9mb 31f 30f
3:04pm 2.5ft 3s 25 29 mph 1008.9mb 31f 31f
2:04pm 2ft 2s 22 29 mph 1008.3mb 31f 31f
1:04pm 2ft 6s 20 25 mph 1008.1mb 31f 31f
12:04pm 2.5ft 6s 20 25 mph 1008.5mb 31f 29f
11:04am 1.6ft 6s 18 25 mph 1008.9mb 31f 29f
10:04am 2ft 6s 16 20 mph 1009.1mb 31f 28f
9:04am 1.6ft 6s 4 7 mph 1009.7mb 31f 26f
8:04am 1.6ft 5s 7 9 mph 1010.2mb 30f 25f
7:04am 2ft 6s 9 11 mph 1010.5mb 30f 24f
6:04am 1.6ft 6s 9 11 mph 1010.9mb 30f 25f
5:04am 2ft 6s 7 9 mph 1011.3mb 30f 25f
4:04am 2ft 6s 7 9 mph 1012.2mb 30f 26f
3:04am 2.5ft 6s 9 11 mph 1013.3mb 30f 26f
2:04am 2.5ft 6s 9 11 mph 1014.9mb 31f 26f
1:04am 2.5ft 6s 4 7 mph 1016.7mb 31f 26f
12:04am 2.5ft 6s 7 9 mph 1017.8mb 31f 27f